Time;durP1;ratioP1;P1;durP2;ratioP2;P2;SDS_P1;SDS_P2;PMS_P1;PMS_P2;Temp;Humidity;BMP_temperature;BMP_pressure;BME280_temperature;BME280_humidity;BME280_pressure;Samples;Min_cycle;Max_cycle;Signal;HPM_P1;HPM_P2
2022/06/15 00:02:00;;;;;;;4.00;3.40;;;20.90;39.10;;;;;;20778;6827;116956;-91
2022/06/15 00:04:36;;;;;;;3.60;3.30;;;20.60;39.70;;;;;;20542;6827;277420;-90
2022/06/15 00:07:12;;;;;;;3.73;3.43;;;20.70;39.70;;;;;;20417;6827;311920;-91
2022/06/15 00:09:48;;;;;;;3.60;3.40;;;20.90;39.30;;;;;;20567;6827;305361;-90
2022/06/15 00:12:23;;;;;;;3.97;3.20;;;21.10;39.10;;;;;;20814;6771;116982;-90
2022/06/15 00:14:59;;;;;;;3.20;2.90;;;20.80;39.30;;;;;;20754;6827;116931;-90
2022/06/15 00:17:36;;;;;;;3.03;2.83;;;20.50;40.10;;;;;;20642;6771;118637;-90
2022/06/15 00:20:11;;;;;;;3.40;3.10;;;20.10;40.20;;;;;;20597;6771;288333;-91
2022/06/15 00:22:48;;;;;;;3.47;3.10;;;20.30;40.40;;;;;;20786;6827;117083;-90
2022/06/15 00:25:24;;;;;;;3.83;3.10;;;20.20;40.30;;;;;;20811;6771;117638;-90
2022/06/15 00:28:00;;;;;;;3.83;3.53;;;20.20;40.70;;;;;;20412;6883;278699;-90
2022/06/15 00:30:36;;;;;;;3.60;3.30;;;20.10;40.50;;;;;;20740;6842;117149;-90
2022/06/15 00:33:11;;;;;;;3.53;3.23;;;20.10;40.60;;;;;;20742;6786;117440;-90
2022/06/15 00:35:55;;;;;;;3.70;3.50;;;19.80;40.80;;;;;;20751;6786;117184;-90
2022/06/15 00:38:29;;;;;;;3.10;2.90;;;19.60;41.00;;;;;;20810;6771;117126;-89
2022/06/15 00:41:05;;;;;;;4.17;3.87;;;19.40;41.20;;;;;;20854;6771;117107;-89
2022/06/15 00:43:43;;;;;;;3.40;3.20;;;19.30;41.50;;;;;;20905;6771;116719;-89
2022/06/15 00:46:33;;;;;;;3.50;3.07;;;19.00;41.80;;;;;;20778;6771;117438;-90
2022/06/15 00:49:16;;;;;;;5.83;3.17;;;18.90;41.90;;;;;;20776;6773;121531;-90
2022/06/15 00:51:52;;;;;;;3.27;3.07;;;18.80;42.10;;;;;;20793;6773;117678;-90
2022/06/15 00:54:29;;;;;;;3.20;2.90;;;18.80;42.10;;;;;;20840;6758;121829;-90
2022/06/15 00:57:05;;;;;;;3.70;3.20;;;18.80;42.20;;;;;;20462;6774;339447;-90
2022/06/15 00:59:50;;;;;;;3.50;3.20;;;19.60;41.30;;;;;;20577;6774;307260;-90
2022/06/15 01:02:26;;;;;;;4.00;3.60;;;19.60;41.30;;;;;;20620;6817;276222;-90
2022/06/15 01:05:18;;;;;;;3.60;3.40;;;20.00;41.10;;;;;;20795;6773;117644;-90
2022/06/15 01:08:00;;;;;;;3.47;3.13;;;19.80;41.10;;;;;;20657;6773;117761;-90
2022/06/15 01:11:15;;;;;;;3.77;3.47;;;19.40;41.50;;;;;;20718;6812;117749;-90
2022/06/15 01:14:15;;;;;;;4.70;4.30;;;19.20;41.90;;;;;;20587;6773;307176;-89
2022/06/15 01:17:11;;;;;;;4.07;3.30;;;19.50;42.00;;;;;;20725;6773;116949;-90
2022/06/15 01:20:21;;;;;;;3.67;3.37;;;19.60;41.60;;;;;;20595;6771;305165;-90
2022/06/15 01:23:17;;;;;;;3.97;3.67;;;19.60;41.60;;;;;;20525;6788;305144;-90
2022/06/15 01:25:52;;;;;;;4.00;3.43;;;19.90;40.80;;;;;;20798;6815;117973;-90
2022/06/15 01:28:41;;;;;;;4.13;3.83;;;19.70;41.00;;;;;;20106;6829;119452;-90
2022/06/15 01:31:37;;;;;;;6.67;4.67;;;19.40;41.60;;;;;;20775;6788;121392;-90
2022/06/15 01:34:25;;;;;;;4.63;4.23;;;19.20;42.00;;;;;;20557;6792;307553;-91
2022/06/15 01:37:01;;;;;;;4.97;4.57;;;19.50;41.80;;;;;;20418;6788;309930;-90
2022/06/15 01:39:46;;;;;;;5.03;4.53;;;19.90;40.90;;;;;;20780;6830;117220;-90
2022/06/15 01:42:25;;;;;;;5.90;5.40;;;19.70;40.90;;;;;;20494;6803;278108;-90
2022/06/15 01:45:00;;;;;;;5.10;4.60;;;19.90;41.10;;;;;;20472;6803;308567;-91
2022/06/15 01:47:36;;;;;;;4.47;3.90;;;20.20;41.30;;;;;;20611;6788;118038;-90
2022/06/15 01:50:12;;;;;;;4.75;4.35;;;20.10;41.40;;;;;;20569;6827;306161;-91
2022/06/15 01:52:50;;;;;;;5.17;4.67;;;20.10;41.10;;;;;;20549;6788;281142;-91
2022/06/15 01:55:46;;;;;;;4.30;4.00;;;20.30;40.50;;;;;;20535;6788;310776;-91
2022/06/15 01:58:22;;;;;;;4.53;4.23;;;20.10;40.60;;;;;;20714;6844;121985;-90
2022/06/15 02:00:58;;;;;;;3.73;3.50;;;20.00;40.40;;;;;;20474;6805;278203;-91
2022/06/15 02:03:40;;;;;;;3.83;3.63;;;20.00;41.00;;;;;;20730;6795;117286;-91
2022/06/15 02:06:15;;;;;;;3.90;3.60;;;19.80;41.40;;;;;;20497;6788;308823;-90
2022/06/15 02:09:01;;;;;;;3.97;3.67;;;19.90;41.50;;;;;;20518;6788;323594;-91
2022/06/15 02:11:36;;;;;;;3.93;3.63;;;20.00;40.90;;;;;;20798;6773;117264;-90
2022/06/15 02:14:22;;;;;;;4.03;3.73;;;19.70;41.10;;;;;;20558;6784;277852;-90
2022/06/15 02:17:00;;;;;;;3.80;3.53;;;19.70;41.20;;;;;;20686;6788;117496;-90
2022/06/15 02:19:38;;;;;;;3.67;3.37;;;19.50;41.50;;;;;;20852;6773;118831;-89
2022/06/15 02:22:13;;;;;;;3.30;3.00;;;19.10;41.90;;;;;;20801;6773;117664;-89
2022/06/15 02:24:49;;;;;;;3.60;3.40;;;18.90;42.30;;;;;;20637;6758;306520;-89
2022/06/15 02:27:26;;;;;;;5.57;3.63;;;19.10;41.90;;;;;;20713;6763;118503;-89
2022/06/15 02:30:00;;;;;;;4.70;3.77;;;19.10;41.90;;;;;;20559;6788;306999;-88
2022/06/15 02:32:35;;;;;;;3.50;3.30;;;19.30;41.60;;;;;;20554;6788;339913;-88
2022/06/15 02:35:20;;;;;;;3.67;3.37;;;19.60;41.10;;;;;;20735;6792;117432;-89
2022/06/15 02:37:46;;;;;;;3.60;3.30;;;19.40;41.10;;;;;;20647;6788;117484;-89
2022/06/15 02:40:23;;;;;;;3.58;3.30;;;19.10;41.60;;;;;;20635;6764;305529;-89
2022/06/15 02:43:00;;;;;;;4.00;3.60;;;19.30;41.70;;;;;;20827;6764;117065;-88
2022/06/15 02:45:37;;;;;;;3.70;3.40;;;19.20;41.70;;;;;;20849;6763;119222;-89
2022/06/15 02:48:13;;;;;;;4.20;3.73;;;18.80;42.60;;;;;;20641;6834;119412;-89
2022/06/15 02:50:59;;;;;;;4.40;4.00;;;18.70;42.30;;;;;;20593;6773;308011;-89
2022/06/15 02:53:34;;;;;;;4.53;3.95;;;18.90;42.70;;;;;;20047;6829;309038;-89
2022/06/15 02:56:11;;;;;;;4.77;3.90;;;19.50;41.50;;;;;;20562;6773;309179;-89
2022/06/15 02:58:47;;;;;;;3.67;3.37;;;19.50;41.50;;;;;;20791;6830;117930;-88
2022/06/15 03:01:25;;;;;;;4.03;3.72;;;19.30;41.80;;;;;;20582;6773;308308;-89
2022/06/15 03:04:00;;;;;;;6.77;3.57;;;19.30;41.90;;;;;;20810;6773;116752;-89
2022/06/15 03:06:35;;;;;;;3.90;3.50;;;19.10;42.30;;;;;;20527;6773;311117;-89
2022/06/15 03:09:11;;;;;;;4.13;3.50;;;19.10;42.50;;;;;;20630;6758;276900;-90
2022/06/15 03:11:46;;;;;;;3.33;3.10;;;19.40;42.60;;;;;;20856;6758;117635;-88
2022/06/15 03:14:22;;;;;;;3.90;3.60;;;19.20;42.60;;;;;;20553;6792;305434;-91
2022/06/15 03:16:57;;;;;;;3.43;3.13;;;19.20;42.40;;;;;;20788;6773;116292;-88
2022/06/15 03:19:33;;;;;;;3.53;3.33;;;19.00;42.70;;;;;;20893;6773;119196;-90
2022/06/15 03:22:09;;;;;;;3.80;3.60;;;18.70;43.60;;;;;;20631;6788;307099;-89
2022/06/15 03:24:44;;;;;;;4.10;3.80;;;18.90;45.80;;;;;;20613;6788;307028;-90
2022/06/15 03:27:30;;;;;;;5.30;3.67;;;19.20;45.00;;;;;;20693;6793;117186;-89
2022/06/15 03:29:55;;;;;;;4.13;3.83;;;19.10;44.90;;;;;;20867;6773;67738;-89
2022/06/15 03:32:31;;;;;;;4.57;4.20;;;18.60;45.10;;;;;;20659;6773;305759;-90
2022/06/15 03:35:07;;;;;;;4.50;4.00;;;18.70;45.60;;;;;;20846;6775;118789;-90
2022/06/15 03:37:52;;;;;;;4.10;3.70;;;18.50;45.50;;;;;;20723;6775;120470;-89
2022/06/15 03:40:27;;;;;;;4.50;4.10;;;18.20;46.00;;;;;;20636;6773;307564;-88
2022/06/15 03:43:03;;;;;;;;;;;;;;;;;;;;;
2022/06/15 03:45:30;;;;;;;4.60;4.20;;;18.40;46.70;;;;;;20554;6788;277824;-87
2022/06/15 03:48:05;;;;;;;3.67;3.47;;;18.30;45.90;;;;;;20640;6827;117433;-87
2022/06/15 03:50:42;;;;;;;4.20;3.80;;;18.50;48.10;;;;;;20593;6771;309062;-88
2022/06/15 03:53:17;;;;;;;3.87;3.67;;;18.50;47.40;;;;;;20787;6771;119224;-87
2022/06/15 03:55:53;;;;;;;4.77;4.40;;;18.80;47.00;;;;;;20744;6791;118000;-88
2022/06/15 03:58:28;;;;;;;4.37;4.07;;;18.90;46.70;;;;;;20633;6815;309097;-87
2022/06/15 04:01:04;;;;;;;6.43;4.07;;;19.30;45.80;;;;;;20722;6788;118251;-87
2022/06/15 04:03:40;;;;;;;5.17;4.77;;;19.30;45.60;;;;;;20595;6773;279703;-88
2022/06/15 04:06:15;;;;;;;4.73;4.30;;;19.50;45.10;;;;;;20497;6788;296900;-88
2022/06/15 04:08:52;;;;;;;4.07;3.77;;;19.80;44.70;;;;;;20679;6851;117671;-88
2022/06/15 04:14:23;;;;;;;4.37;3.70;;;19.50;45.60;;;;;;20579;6778;311066;-89
2022/06/15 04:17:00;;;;;;;3.70;3.43;;;19.90;44.70;;;;;;20684;6778;121909;-89
2022/06/15 04:19:35;;;;;;;4.17;3.87;;;20.00;44.60;;;;;;20808;6773;117482;-89
2022/06/15 04:22:11;;;;;;;4.17;3.70;;;19.90;44.70;;;;;;20587;6775;304617;-88
2022/06/15 04:24:48;;;;;;;3.57;3.27;;;20.30;44.20;;;;;;20852;6790;69298;-89
2022/06/15 04:27:23;;;;;;;3.87;3.58;;;20.40;44.10;;;;;;20577;6815;335435;-89
2022/06/15 04:29:59;;;;;;;3.77;3.47;;;20.70;43.50;;;;;;20886;6773;117122;-90
2022/06/15 04:32:35;;;;;;;3.83;3.60;;;20.70;43.40;;;;;;20738;6758;305397;-90
2022/06/15 04:35:10;;;;;;;3.87;3.60;;;21.00;42.90;;;;;;20896;6764;120996;-88
2022/06/15 04:37:46;;;;;;;3.80;3.50;;;20.90;42.90;;;;;;20730;6774;68049;-88
2022/06/15 04:40:21;;;;;;;3.73;3.43;;;20.70;43.20;;;;;;20877;6778;70034;-88
2022/06/15 04:42:57;;;;;;;4.13;3.80;;;20.50;43.40;;;;;;20739;6791;118853;-88
2022/06/15 04:45:35;;;;;;;3.57;3.37;;;20.40;43.60;;;;;;20802;6777;119776;-89
2022/06/15 04:48:12;;;;;;;4.60;4.20;;;20.30;43.70;;;;;;20585;6848;117825;-89
2022/06/15 04:50:48;;;;;;;4.40;4.10;;;20.30;43.90;;;;;;20585;6777;309416;-90
2022/06/15 04:53:23;;;;;;;4.57;4.27;;;20.60;43.40;;;;;;20781;6777;116857;-88
2022/06/15 04:56:00;;;;;;;4.77;4.30;;;20.90;43.90;;;;;;20565;6777;304234;-92
2022/06/15 04:58:35;;;;;;;4.20;3.90;;;20.90;43.30;;;;;;20595;6777;277247;-88
2022/06/15 05:01:11;;;;;;;4.60;4.30;;;21.30;42.80;;;;;;20506;6792;307627;-88
2022/06/15 05:03:48;;;;;;;4.50;4.10;;;21.80;42.10;;;;;;20593;6778;307158;-88
2022/06/15 05:06:31;;;;;;;4.57;4.17;;;21.70;41.90;;;;;;20545;6778;278588;-88
2022/06/15 05:09:08;;;;;;;4.57;4.20;;;21.90;41.60;;;;;;20533;6831;277549;-88
2022/06/15 05:11:45;;;;;;;4.23;4.03;;;22.10;41.50;;;;;;20531;6794;301459;-88
2022/06/15 05:14:20;;;;;;;4.03;3.67;;;22.30;41.30;;;;;;20747;6791;120457;-88
2022/06/15 05:16:56;;;;;;;4.30;4.00;;;22.00;41.40;;;;;;20461;6788;279111;-89
2022/06/15 05:19:33;;;;;;;4.33;4.03;;;22.10;41.60;;;;;;20796;6773;117362;-89
2022/06/15 05:22:08;;;;;;;4.18;3.87;;;21.90;42.40;;;;;;20624;6775;304946;-88
2022/06/15 05:24:44;;;;;;;4.27;3.90;;;22.00;41.70;;;;;;20647;6778;278632;-88
2022/06/15 05:27:19;;;;;;;4.47;4.07;;;22.30;41.20;;;;;;20412;6788;341416;-89
2022/06/15 05:29:55;;;;;;;3.77;3.47;;;22.50;40.90;;;;;;20802;6773;117144;-88
2022/06/15 05:32:30;;;;;;;4.03;3.73;;;22.30;41.00;;;;;;20796;6778;117029;-89
2022/06/15 05:35:06;;;;;;;3.63;3.47;;;22.00;41.40;;;;;;20839;6758;117247;-88
2022/06/15 05:37:43;;;;;;;4.35;3.90;;;21.80;41.90;;;;;;20395;6788;341619;-88
2022/06/15 05:40:19;;;;;;;4.70;3.90;;;22.00;42.10;;;;;;20705;6805;120754;-89
2022/06/15 05:42:54;;;;;;;4.10;3.80;;;22.00;42.10;;;;;;20752;6786;117120;-88
2022/06/15 05:45:31;;;;;;;3.93;3.53;;;21.70;42.60;;;;;;20809;6771;117337;-90
2022/06/15 05:48:06;;;;;;;4.00;3.70;;;21.70;42.60;;;;;;20596;6842;118042;-89
2022/06/15 05:50:42;;;;;;;4.53;4.20;;;21.60;42.90;;;;;;20517;6801;278656;-88
2022/06/15 05:53:20;;;;;;;4.60;4.30;;;22.00;43.00;;;;;;20539;6792;335010;-88
2022/06/15 05:55:56;;;;;;;4.15;3.85;;;22.40;42.30;;;;;;20635;6778;322539;-89
2022/06/15 05:58:32;;;;;;;4.03;3.80;;;22.90;42.10;;;;;;20890;6773;116962;-90
2022/06/15 06:01:11;;;;;;;4.00;3.70;;;22.80;41.60;;;;;;20763;6788;117078;-89
2022/06/15 06:03:46;;;;;;;4.07;3.77;;;22.70;41.80;;;;;;20758;6790;117318;-90
2022/06/15 06:06:22;;;;;;;4.83;4.00;;;22.60;42.00;;;;;;20685;6788;116600;-89
2022/06/15 06:08:57;;;;;;;4.20;3.80;;;22.60;42.40;;;;;;20780;6773;119537;-91
2022/06/15 06:11:36;;;;;;;4.17;3.70;;;22.90;42.80;;;;;;20795;6803;66741;-92
2022/06/15 06:14:12;;;;;;;3.90;3.60;;;23.50;42.80;;;;;;20798;6803;68268;-89
2022/06/15 06:16:47;;;;;;;4.00;3.70;;;24.30;42.40;;;;;;20517;6803;308828;-90
2022/06/15 06:19:23;;;;;;;4.07;3.77;;;25.40;38.90;;;;;;20657;6763;276644;-90
2022/06/15 06:21:58;;;;;;;4.20;3.90;;;26.70;36.90;;;;;;20685;6773;335024;-90
2022/06/15 06:24:34;;;;;;;4.33;3.97;;;27.80;35.20;;;;;;20872;6773;117575;-90
2022/06/15 06:27:12;;;;;;;4.07;3.77;;;28.30;35.50;;;;;;20755;6758;145946;-91
2022/06/15 06:29:48;;;;;;;4.10;3.83;;;28.50;35.60;;;;;;20937;6758;116134;-92
2022/06/15 06:32:23;;;;;;;4.27;3.37;;;28.70;35.50;;;;;;20921;6812;116493;-90
2022/06/15 06:35:08;;;;;;;3.70;3.40;;;29.00;35.40;;;;;;20726;6758;305890;-92
2022/06/15 06:37:35;;;;;;;4.10;3.80;;;29.70;32.40;;;;;;20537;6758;310835;-93
2022/06/15 06:40:10;;;;;;;3.80;3.50;;;30.60;31.40;;;;;;20924;6758;117913;-91
2022/06/15 06:42:46;;;;;;;3.33;3.13;;;30.80;32.00;;;;;;20862;6758;117116;-92
2022/06/15 06:45:23;;;;;;;3.90;3.60;;;30.80;32.20;;;;;;20641;6758;282234;-90
2022/06/15 06:48:00;;;;;;;4.03;3.72;;;31.40;30.50;;;;;;20442;6758;280388;-91
2022/06/15 06:50:35;;;;;;;5.37;3.90;;;32.00;29.70;;;;;;20863;6758;117005;-91
2022/06/15 06:53:10;;;;;;;4.37;3.60;;;32.00;30.20;;;;;;20812;6758;117377;-91
2022/06/15 06:55:45;;;;;;;4.40;4.00;;;31.70;30.80;;;;;;20638;6758;305652;-92
2022/06/15 06:58:21;;;;;;;4.43;4.00;;;32.20;29.90;;;;;;20652;6758;276799;-91
2022/06/15 07:01:07;;;;;;;4.20;3.80;;;32.10;29.60;;;;;;20840;6758;118063;-91
2022/06/15 07:03:33;;;;;;;4.47;3.53;;;31.90;30.40;;;;;;20871;6759;117192;-92
2022/06/15 07:06:08;;;;;;;5.80;3.30;;;31.40;30.50;;;;;;20809;6757;116891;-91
2022/06/15 07:08:44;;;;;;;3.50;3.27;;;31.20;30.80;;;;;;20775;6758;117401;-90
2022/06/15 07:11:19;;;;;;;3.77;3.40;;;31.00;30.50;;;;;;20627;6758;277792;-90
2022/06/15 07:13:56;;;;;;;3.80;3.50;;;31.60;28.90;;;;;;20567;6780;309923;-89
2022/06/15 07:16:31;;;;;;;3.90;3.50;;;31.60;28.90;;;;;;20689;6792;117238;-90
2022/06/15 07:19:08;;;;;;;3.67;3.27;;;31.50;29.20;;;;;;20809;6773;117352;-90
2022/06/15 07:21:43;;;;;;;3.63;3.10;;;31.20;29.50;;;;;;20807;6773;117698;-92
2022/06/15 07:24:19;;;;;;;3.63;3.33;;;30.80;29.80;;;;;;20857;6758;117717;-91
2022/06/15 07:26:55;;;;;;;4.50;3.37;;;30.70;29.70;;;;;;20433;6788;310028;-91
2022/06/15 07:29:31;;;;;;;3.80;3.40;;;30.70;29.70;;;;;;20850;6773;117109;-91
2022/06/15 07:32:07;;;;;;;3.83;3.53;;;30.60;29.60;;;;;;20844;6758;114398;-90
2022/06/15 07:34:42;;;;;;;4.53;3.50;;;30.20;29.60;;;;;;20599;6773;307565;-92
2022/06/15 07:37:18;;;;;;;5.77;3.33;;;30.30;29.30;;;;;;20493;6758;282296;-90
2022/06/15 07:39:53;;;;;;;3.67;3.37;;;30.50;29.20;;;;;;20604;6773;307667;-90
2022/06/15 07:42:29;;;;;;;3.90;3.50;;;30.60;29.30;;;;;;20637;6758;277632;-90
2022/06/15 07:45:07;;;;;;;3.30;3.10;;;30.60;28.80;;;;;;20540;6788;278566;-92
2022/06/15 07:50:39;;;;;;;4.27;3.20;;;30.20;29.20;;;;;;20862;6759;117105;-88
2022/06/15 07:53:15;;;;;;;3.73;3.33;;;30.10;29.10;;;;;;20833;6758;123979;-88
2022/06/15 07:55:52;;;;;;;3.50;3.27;;;29.80;29.70;;;;;;20842;6758;118107;-88
2022/06/15 07:58:26;;;;;;;4.60;3.10;;;29.50;29.90;;;;;;20649;6758;278021;-89
2022/06/15 08:01:02;;;;;;;3.80;3.50;;;29.80;31.10;;;;;;20564;6773;277498;-89
2022/06/15 08:03:37;;;;;;;3.87;3.50;;;30.10;30.70;;;;;;20648;6758;308010;-88
2022/06/15 08:06:14;;;;;;;3.20;2.90;;;30.30;30.00;;;;;;20756;6773;120315;-90
2022/06/15 08:08:50;;;;;;;4.63;3.33;;;30.30;30.30;;;;;;20798;6775;117615;-88
2022/06/15 08:11:25;;;;;;;3.50;3.30;;;30.10;30.40;;;;;;20537;6790;293303;-89
2022/06/15 08:14:01;;;;;;;5.23;3.40;;;30.20;29.80;;;;;;20758;6788;117257;-88
2022/06/15 08:16:36;;;;;;;3.30;3.10;;;30.10;30.00;;;;;;20480;6792;308748;-89
2022/06/15 08:19:12;;;;;;;3.63;3.20;;;30.30;30.80;;;;;;20580;6777;307859;-90
2022/06/15 08:21:48;;;;;;;4.97;3.57;;;30.70;30.10;;;;;;20802;6777;117250;-89
2022/06/15 08:24:24;;;;;;;4.30;3.20;;;30.60;30.00;;;;;;20779;6784;117859;-88
2022/06/15 08:27:03;;;;;;;3.57;3.27;;;30.50;30.00;;;;;;20416;6792;308451;-88
2022/06/15 08:29:35;;;;;;;3.50;3.20;;;30.70;30.00;;;;;;20599;6778;305185;-88
2022/06/15 08:32:10;;;;;;;4.07;3.40;;;31.00;30.00;;;;;;20859;6773;116487;-93
2022/06/15 08:34:46;;;;;;;4.17;3.10;;;31.10;30.10;;;;;;20686;6773;276768;-90
2022/06/15 08:37:22;;;;;;;3.57;3.10;;;31.30;31.10;;;;;;20731;6773;117572;-88
2022/06/15 08:39:57;;;;;;;3.43;3.13;;;31.30;30.30;;;;;;20874;6758;117116;-88
2022/06/15 08:42:37;;;;;;;3.30;3.10;;;31.30;30.80;;;;;;20652;6758;276450;-89
2022/06/15 08:45:16;;;;;;;3.73;2.80;;;31.30;30.60;;;;;;20766;6778;116979;-89
2022/06/15 08:48:08;;;;;;;4.90;3.30;;;31.30;30.00;;;;;;20486;6758;311185;-89
2022/06/15 08:51:23;;;;;;;3.75;2.75;;;31.50;30.00;;;;;;20590;6773;336306;-89
2022/06/15 08:54:03;;;;;;;3.42;3.20;;;32.20;29.90;;;;;;20543;6788;331486;-88
2022/06/15 08:56:45;;;;;;;3.60;3.30;;;32.20;29.90;;;;;;20519;6777;336943;-90
2022/06/15 08:59:25;;;;;;;3.17;2.87;;;32.50;29.40;;;;;;20517;6792;335590;-89
2022/06/15 09:02:20;;;;;;;3.30;3.10;;;32.50;29.40;;;;;;20796;6771;117507;-89
2022/06/15 09:05:16;;;;;;;4.12;3.40;;;32.40;29.60;;;;;;20564;6771;336696;-90
2022/06/15 09:08:17;;;;;;;3.42;3.10;;;32.40;29.40;;;;;;20450;6771;308074;-89
2022/06/15 09:11:19;;;;;;;4.57;2.90;;;32.70;28.80;;;;;;20720;6795;117663;-90
2022/06/15 09:14:15;;;;;;;3.67;3.27;;;32.60;29.10;;;;;;20764;6788;118453;-89
2022/06/15 09:16:53;;;;;;;3.97;3.13;;;32.40;29.60;;;;;;20453;6786;281043;-90
2022/06/15 09:19:28;;;;;;;4.05;3.10;;;32.40;29.00;;;;;;20557;6786;336004;-87
2022/06/15 09:22:05;;;;;;;3.47;3.17;;;32.70;28.30;;;;;;20760;6786;117094;-88
2022/06/15 09:24:46;;;;;;;3.03;2.90;;;32.60;28.70;;;;;;20758;6786;116984;-88
2022/06/15 09:27:26;;;;;;;4.13;2.90;;;32.50;29.10;;;;;;20622;6786;119177;-88
2022/06/15 09:30:11;;;;;;;3.53;3.23;;;32.40;29.50;;;;;;20774;6785;117486;-89
2022/06/15 09:32:48;;;;;;;3.43;3.23;;;32.30;29.50;;;;;;20532;6789;278344;-89
2022/06/15 09:35:37;;;;;;;3.60;3.00;;;32.60;28.60;;;;;;20554;6774;339510;-89
2022/06/15 09:38:15;;;;;;;3.58;3.28;;;32.90;29.30;;;;;;20342;6857;315071;-92
2022/06/15 09:40:55;;;;;;;4.93;3.03;;;33.20;29.10;;;;;;20544;6788;307246;-91
2022/06/15 09:44:06;;;;;;;3.50;3.20;;;33.40;28.80;;;;;;20752;6788;117304;-89
2022/06/15 09:47:04;;;;;;;3.83;3.03;;;33.40;28.20;;;;;;20442;6803;310018;-88
2022/06/15 09:49:47;;;;;;;2.93;2.73;;;33.40;28.30;;;;;;20594;6773;305339;-89
2022/06/15 09:52:35;;;;;;;3.37;2.80;;;33.70;27.50;;;;;;20546;6788;337636;-92
2022/06/15 09:55:19;;;;;;;3.20;2.90;;;33.80;27.80;;;;;;20697;6803;118589;-89
2022/06/15 09:57:54;;;;;;;3.33;3.00;;;33.70;27.70;;;;;;20638;6778;119567;-92
2022/06/15 10:00:29;;;;;;;3.28;3.00;;;33.40;28.00;;;;;;20248;6803;311095;-92
2022/06/15 10:03:05;;;;;;;3.15;2.92;;;33.40;27.80;;;;;;20452;6846;338251;-89
2022/06/15 10:05:40;;;;;;;3.37;3.07;;;33.60;28.10;;;;;;20765;6788;117338;-90
2022/06/15 10:08:16;;;;;;;3.57;3.10;;;33.60;28.70;;;;;;20587;6773;306948;-89
2022/06/15 10:10:59;;;;;;;3.20;3.00;;;33.70;28.50;;;;;;20578;6773;308310;-91
2022/06/15 10:13:34;;;;;;;3.30;3.00;;;33.90;28.30;;;;;;20564;6784;307352;-86
2022/06/15 10:16:16;;;;;;;3.50;3.20;;;34.10;28.00;;;;;;20727;6788;117169;-92
2022/06/15 10:18:52;;;;;;;2.80;2.70;;;34.10;28.20;;;;;;20529;6788;307772;-91
2022/06/15 10:21:28;;;;;;;2.87;2.67;;;34.20;28.00;;;;;;20802;6773;117345;-91
2022/06/15 10:24:07;;;;;;;2.90;2.70;;;34.10;27.70;;;;;;20596;6773;277239;-91
2022/06/15 10:26:42;;;;;;;2.97;2.78;;;34.30;27.80;;;;;;20472;6788;283642;-92
2022/06/15 10:29:28;;;;;;;4.95;3.20;;;34.50;26.00;;;;;;20534;6788;278146;-91
2022/06/15 10:32:10;;;;;;;2.90;2.70;;;34.60;26.70;;;;;;20493;6803;309196;-92
2022/06/15 10:34:45;;;;;;;4.40;2.40;;;34.70;26.10;;;;;;20593;6773;290397;-93
2022/06/15 10:37:31;;;;;;;2.70;2.50;;;34.70;25.40;;;;;;20469;6773;279137;-92
2022/06/15 10:40:07;;;;;;;3.40;2.50;;;34.70;26.00;;;;;;20725;6803;117219;-92
2022/06/15 10:42:42;;;;;;;2.80;2.60;;;34.40;26.60;;;;;;20656;6848;119306;-92
2022/06/15 10:45:35;;;;;;;2.37;2.27;;;34.10;26.60;;;;;;20780;6773;123688;-92
2022/06/15 10:48:13;;;;;;;2.70;2.50;;;33.90;26.80;;;;;;20636;6829;117922;-92
2022/06/15 10:51:05;;;;;;;2.40;2.20;;;33.70;26.40;;;;;;20750;6788;117191;-92
2022/06/15 10:54:07;;;;;;;2.30;2.20;;;33.50;25.70;;;;;;20504;6803;277930;-93
2022/06/15 11:02:41;;;;;;;3.33;2.20;;;34.00;25.00;;;;;;20666;6758;318263;-93
2022/06/15 11:05:17;;;;;;;2.60;2.40;;;33.90;24.80;;;;;;20703;6758;275654;-94
2022/06/15 11:07:59;;;;;;;2.43;2.23;;;34.10;25.00;;;;;;20748;6758;113831;-93
2022/06/15 11:10:34;;;;;;;2.60;2.40;;;34.10;25.00;;;;;;20733;6758;277688;-90
2022/06/15 11:13:24;;;;;;;2.40;2.30;;;34.30;25.50;;;;;;20673;6758;276722;-91
2022/06/15 11:18:59;;;;;;;2.50;2.30;;;34.40;25.10;;;;;;20637;6758;279004;-91
2022/06/15 11:21:41;;;;;;;2.50;2.10;;;34.60;24.90;;;;;;20925;6758;116254;-93
2022/06/15 11:24:33;;;;;;;2.40;2.20;;;34.40;25.40;;;;;;20637;6812;338882;-92
2022/06/15 11:27:15;;;;;;;1.90;1.80;;;34.30;24.10;;;;;;20704;6758;120787;-90
2022/06/15 11:29:53;;;;;;;2.40;2.20;;;34.20;24.50;;;;;;20842;6758;117941;-90
2022/06/15 11:32:41;;;;;;;2.50;2.30;;;34.00;25.10;;;;;;20648;6758;292301;-93
2022/06/15 11:35:37;;;;;;;2.77;2.63;;;34.10;26.70;;;;;;20841;6758;119549;-89
2022/06/15 11:38:32;;;;;;;2.40;2.27;;;34.10;26.40;;;;;;20635;6830;117815;-91
2022/06/15 11:41:12;;;;;;;3.12;2.35;;;33.90;26.10;;;;;;20542;6773;309513;-90
2022/06/15 11:43:51;;;;;;;2.23;2.13;;;33.90;26.50;;;;;;20758;6788;117309;-89
2022/06/15 11:46:59;;;;;;;2.30;2.10;;;33.90;26.30;;;;;;20700;6788;117315;-90
2022/06/15 11:49:58;;;;;;;2.30;2.20;;;33.80;26.10;;;;;;20634;6758;335716;-89
2022/06/15 11:53:01;;;;;;;2.10;2.00;;;34.00;25.60;;;;;;20619;6763;277848;-90
2022/06/15 11:55:39;;;;;;;2.50;2.40;;;34.30;25.90;;;;;;20585;6773;277741;-90
2022/06/15 11:58:47;;;;;;;2.33;2.12;;;34.60;25.10;;;;;;20589;6773;280876;-90
2022/06/15 12:01:44;;;;;;;2.50;2.10;;;34.60;23.40;;;;;;20524;6788;278516;-91
2022/06/15 12:04:22;;;;;;;2.30;2.20;;;34.60;23.30;;;;;;20748;6790;120615;-93
2022/06/15 12:07:02;;;;;;;2.20;2.10;;;34.30;24.20;;;;;;20715;6763;141025;-90
2022/06/15 12:09:44;;;;;;;2.00;1.90;;;33.70;25.30;;;;;;20652;6844;118121;-90
2022/06/15 12:12:39;;;;;;;2.13;2.03;;;33.60;25.20;;;;;;20736;6788;117586;-91
2022/06/15 12:15:41;;;;;;;8.23;2.90;;;33.40;25.60;;;;;;20779;6773;117118;-89
2022/06/15 12:18:36;;;;;;;2.63;2.43;;;33.20;26.00;;;;;;20750;6788;117608;-90
2022/06/15 12:21:11;;;;;;;2.20;2.10;;;33.00;25.80;;;;;;20089;6830;399545;-91
2022/06/15 12:24:04;;;;;;;2.60;2.40;;;33.20;25.80;;;;;;20746;6788;117321;-90
2022/06/15 12:26:49;;;;;;;2.77;2.30;;;33.20;26.70;;;;;;20688;6788;117328;-94
2022/06/15 12:29:42;;;;;;;2.30;2.10;;;33.20;26.70;;;;;;20742;6788;117560;-90
2022/06/15 12:32:34;;;;;;;2.30;2.10;;;33.00;26.10;;;;;;20701;6830;117136;-91
2022/06/15 12:35:29;;;;;;;2.20;2.10;;;32.90;26.20;;;;;;20556;6773;307192;-90
2022/06/15 12:38:21;;;;;;;2.47;2.27;;;33.10;26.20;;;;;;20392;6793;309776;-89
2022/06/15 12:40:57;;;;;;;4.03;2.47;;;33.20;25.60;;;;;;20789;6778;119100;-88
2022/06/15 12:43:36;;;;;;;2.58;2.37;;;33.20;25.60;;;;;;20542;6792;336962;-90
2022/06/15 12:46:14;;;;;;;2.80;2.30;;;33.10;25.70;;;;;;20670;6807;117260;-90
2022/06/15 12:49:11;;;;;;;2.37;2.27;;;33.10;25.70;;;;;;20696;6809;118873;-87
2022/06/15 12:51:46;;;;;;;2.40;2.30;;;33.00;26.30;;;;;;20720;6801;117273;-89
2022/06/15 12:54:29;;;;;;;2.80;2.60;;;32.80;26.80;;;;;;20713;6801;117111;-88
2022/06/15 12:57:08;;;;;;;2.70;2.50;;;32.70;26.90;;;;;;20679;6786;121061;-90
2022/06/15 13:00:06;;;;;;;3.03;2.23;;;32.70;26.40;;;;;;20572;6779;307332;-91
2022/06/15 13:03:15;;;;;;;2.22;2.10;;;32.80;27.40;;;;;;20601;6773;306803;-93
2022/06/15 13:05:51;;;;;;;2.27;2.17;;;33.20;26.90;;;;;;20805;6773;118702;-90
2022/06/15 13:08:33;;;;;;;3.20;2.97;;;33.20;26.60;;;;;;20804;6814;116989;-88
2022/06/15 13:11:16;;;;;;;2.37;2.17;;;32.80;26.90;;;;;;20743;6788;118168;-89
2022/06/15 13:13:52;;;;;;;2.53;2.30;;;32.90;26.80;;;;;;20603;6773;278652;-89
2022/06/15 13:16:28;;;;;;;2.40;2.30;;;32.90;26.80;;;;;;20751;6773;118348;-89
2022/06/15 13:19:03;;;;;;;2.40;2.20;;;33.00;26.50;;;;;;20788;6773;117617;-89
2022/06/15 13:21:49;;;;;;;3.40;2.40;;;32.80;26.60;;;;;;20789;6773;118231;-88
2022/06/15 13:24:25;;;;;;;2.60;2.40;;;32.70;26.50;;;;;;20584;6829;307593;-89
2022/06/15 13:27:00;;;;;;;2.40;2.17;;;32.80;25.80;;;;;;20700;6773;117864;-89
2022/06/15 13:29:37;;;;;;;2.65;2.45;;;33.00;26.40;;;;;;20608;6764;327154;-89
2022/06/15 13:32:21;;;;;;;2.78;2.55;;;33.00;26.40;;;;;;20618;6764;334783;-89
2022/06/15 13:34:48;;;;;;;2.40;2.30;;;33.20;25.20;;;;;;20840;6764;117142;-89
2022/06/15 13:37:23;;;;;;;2.50;2.30;;;33.10;26.20;;;;;;20479;6788;311329;-91
2022/06/15 13:40:22;;;;;;;13.67;3.30;;;33.10;25.40;;;;;;20852;6788;116416;-92
2022/06/15 13:42:58;;;;;;;2.43;2.33;;;32.70;26.50;;;;;;20849;6773;118178;-88
2022/06/15 13:45:33;;;;;;;2.70;2.50;;;32.70;26.50;;;;;;20825;6773;120297;-89
2022/06/15 13:48:12;;;;;;;2.70;2.57;;;32.50;26.80;;;;;;20413;6850;308588;-90
2022/06/15 13:50:51;;;;;;;2.90;2.70;;;32.70;26.50;;;;;;20868;6778;116680;-91
2022/06/15 13:53:40;;;;;;;2.70;2.50;;;32.70;26.20;;;;;;20885;6773;116966;-92
2022/06/15 13:56:31;;;;;;;3.27;3.00;;;32.50;26.20;;;;;;20863;6773;67072;-92
2022/06/15 13:59:31;;;;;;;2.97;2.73;;;32.30;26.80;;;;;;20330;6835;119906;-90